Time;durP1;ratioP1;P1;durP2;ratioP2;P2;SDS_P1;SDS_P2;PMS_P1;PMS_P2;Temp;Humidity;BMP_temperature;BMP_pressure;BME280_temperature;BME280_humidity;BME280_pressure;Samples;Min_cycle;Max_cycle;Signal;HPM_P1;HPM_P2
2023/10/10 00:01:17;;;;;;;16.35;10.20;;;15.30;99.90;;;;;;4992097;28;20660;-73
2023/10/10 00:03:45;;;;;;;16.60;11.13;;;15.20;99.90;;;;;;4991937;28;20232;-73
2023/10/10 00:06:13;;;;;;;16.77;10.70;;;15.20;99.90;;;;;;4974476;28;20218;-73
2023/10/10 00:08:46;;;;;;;16.83;10.80;;;15.20;99.90;;;;;;4992054;28;20175;-73
2023/10/10 00:11:14;;;;;;;17.23;11.35;;;15.10;99.90;;;;;;4991859;28;20613;-73
2023/10/10 00:13:46;;;;;;;18.52;11.38;;;15.10;99.90;;;;;;4991887;28;20221;-73
2023/10/10 00:21:43;;;;;;;17.05;11.43;;;15.10;99.90;;;;;;4991923;28;20634;-74
2023/10/10 00:24:12;;;;;;;19.50;10.95;;;;;;;;;;4991740;28;20322;-74
2023/10/10 00:26:42;;;;;;;19.00;11.93;;;15.10;99.90;;;;;;4991897;28;20179;-74
2023/10/10 00:29:09;;;;;;;15.77;10.60;;;15.10;99.90;;;;;;4991855;28;20185;-75
2023/10/10 00:31:43;;;;;;;18.65;11.20;;;15.10;99.90;;;;;;4991475;28;20206;-74
2023/10/10 00:34:09;;;;;;;17.05;11.02;;;15.20;99.90;;;;;;4991496;28;20226;-73
2023/10/10 00:36:35;;;;;;;18.38;11.32;;;;;;;;;;4991714;28;20562;-73
2023/10/10 00:39:07;;;;;;;23.73;11.75;;;15.20;99.90;;;;;;4991462;28;20182;-73
2023/10/10 00:41:51;;;;;;;17.63;11.40;;;15.10;99.90;;;;;;4991517;28;20676;-73
2023/10/10 00:44:18;;;;;;;25.13;11.85;;;15.10;99.90;;;;;;4991597;28;20163;-73
2023/10/10 00:46:51;;;;;;;72.32;11.55;;;15.10;99.90;;;;;;4991620;28;20266;-73
2023/10/10 00:49:23;;;;;;;39.92;11.93;;;15.10;99.90;;;;;;4991447;28;20214;-74
2023/10/10 00:51:54;;;;;;;103.90;11.80;;;15.10;99.90;;;;;;4991486;28;20226;-75
2023/10/10 00:56:56;;;;;;;26.55;10.70;;;15.00;99.90;;;;;;4991118;28;20249;-75
2023/10/10 00:59:35;;;;;;;102.10;11.52;;;15.00;99.90;;;;;;4991076;28;20179;-75
2023/10/10 01:02:05;;;;;;;68.57;11.38;;;15.00;99.90;;;;;;4991436;28;20187;-75
2023/10/10 01:07:21;;;;;;;55.75;10.20;;;15.00;99.90;;;;;;4972183;28;20246;-74
2023/10/10 01:12:20;;;;;;;38.10;9.88;;;15.00;99.90;;;;;;4971853;28;20180;-74
2023/10/10 01:14:46;;;;;;;66.50;10.13;;;13.40;99.90;;;;;;4975923;28;20214;-76
2023/10/10 01:17:12;;;;;;;33.75;9.80;;;15.00;99.90;;;;;;4991376;28;20182;-74
2023/10/10 01:19:38;;;;;;;64.10;9.82;;;15.00;99.90;;;;;;4991363;28;20179;-74
2023/10/10 01:22:09;;;;;;;106.05;10.48;;;15.90;99.90;;;;;;4991158;28;20179;-73
2023/10/10 01:24:35;;;;;;;15.48;9.27;;;14.90;99.90;;;;;;4991090;28;20187;-73
2023/10/10 01:27:13;;;;;;;20.30;9.02;;;14.90;99.90;;;;;;4991394;28;20179;-74
2023/10/10 01:29:50;;;;;;;25.15;8.68;;;14.90;99.90;;;;;;4985875;28;20269;-74
2023/10/10 01:32:17;;;;;;;23.17;9.70;;;14.90;99.90;;;;;;4991186;28;20183;-74
2023/10/10 01:34:44;;;;;;;112.35;10.20;;;14.90;99.90;;;;;;4973789;28;20168;-74
2023/10/10 01:37:22;;;;;;;35.95;8.98;;;14.90;99.90;;;;;;4990767;28;20179;-74
2023/10/10 01:40:06;;;;;;;12.18;8.07;;;14.90;99.90;;;;;;4990122;28;20178;-74
2023/10/10 01:42:45;;;;;;;15.85;8.25;;;14.90;99.90;;;;;;4991231;28;20202;-74
2023/10/10 01:45:18;;;;;;;17.15;8.35;;;15.00;99.90;;;;;;4976571;28;20182;-74
2023/10/10 01:47:56;;;;;;;48.10;9.32;;;14.90;99.90;;;;;;4994581;28;20233;-73
2023/10/10 01:50:26;;;;;;;19.02;8.63;;;14.90;99.90;;;;;;4994375;28;20289;-73
2023/10/10 01:52:55;;;;;;;15.35;8.30;;;15.00;99.90;;;;;;4994444;28;20176;-73
2023/10/10 01:55:24;;;;;;;88.30;9.15;;;14.80;99.90;;;;;;4994416;28;20286;-74
2023/10/10 01:57:50;;;;;;;104.03;9.40;;;14.80;99.90;;;;;;4976874;28;20266;-74
2023/10/10 02:00:26;;;;;;;59.72;9.02;;;14.70;99.90;;;;;;4994125;28;20581;-73
2023/10/10 02:02:55;;;;;;;22.45;8.32;;;14.70;99.90;;;;;;4994482;28;20182;-74
2023/10/10 02:08:22;;;;;;;97.70;8.52;;;14.70;99.90;;;;;;4983103;28;20191;-74
2023/10/10 02:10:49;;;;;;;67.03;8.18;;;14.70;99.90;;;;;;4993915;28;20222;-75
2023/10/10 02:13:16;;;;;;;21.05;6.90;;;14.70;99.90;;;;;;4994098;28;20159;-75
2023/10/10 02:15:42;;;;;;;50.22;7.57;;;14.50;99.90;;;;;;4992534;28;20705;-75
2023/10/10 02:18:23;;;;;;;40.30;7.85;;;14.60;99.90;;;;;;4993842;28;20282;-74
2023/10/10 02:23:31;;;;;;;43.22;8.43;;;14.50;99.90;;;;;;4993867;28;20180;-75
2023/10/10 02:29:16;;;;;;;21.58;7.43;;;15.10;99.90;;;;;;4993970;28;20191;-75
2023/10/10 02:31:29;;;;;;;36.85;8.80;;;14.50;99.90;;;;;;4992116;28;20578;-75
2023/10/10 02:34:03;;;;;;;150.93;9.73;;;14.60;99.90;;;;;;4993675;28;20175;-75
2023/10/10 02:36:30;;;;;;;22.42;7.03;;;14.50;99.90;;;;;;4993756;28;20175;-75
2023/10/10 02:39:18;;;;;;;62.97;8.82;;;14.70;99.90;;;;;;4993695;28;20206;-75
2023/10/10 02:41:58;;;;;;;26.20;7.65;;;14.40;99.90;;;;;;4993611;28;20179;-75
2023/10/10 02:47:02;;;;;;;23.67;7.68;;;14.50;99.90;;;;;;4993573;28;20164;-75
2023/10/10 02:51:57;;;;;;;99.30;9.13;;;;;;;;;;4993432;28;20253;-75
2023/10/10 02:54:37;;;;;;;38.45;8.20;;;14.60;99.90;;;;;;4975749;28;20186;-75
2023/10/10 03:02:42;;;;;;;12.73;7.60;;;14.50;99.90;;;;;;4993313;28;20218;-75
2023/10/10 03:05:14;;;;;;;18.40;7.82;;;14.60;99.90;;;;;;4992895;28;20211;-75
2023/10/10 03:07:42;;;;;;;21.80;8.48;;;14.60;99.90;;;;;;4976433;28;20179;-75
2023/10/10 03:12:48;;;;;;;12.70;8.30;;;14.60;99.90;;;;;;4992913;28;20250;-75
2023/10/10 03:20:48;;;;;;;15.35;8.10;;;14.70;99.90;;;;;;4993149;28;20282;-75
2023/10/10 03:33:37;;;;;;;45.38;7.22;;;14.70;99.90;;;;;;4992814;28;20186;-74
2023/10/10 05:25:31;;;;;;;17.33;8.95;;;14.90;99.90;;;;;;4975824;28;20195;-74
2023/10/10 05:27:58;;;;;;;24.45;9.57;;;14.90;99.90;;;;;;4982875;28;20676;-75
2023/10/10 05:30:25;;;;;;;16.08;8.80;;;15.00;99.90;;;;;;4994578;28;20195;-74
2023/10/10 05:33:03;;;;;;;28.42;9.13;;;15.00;99.90;;;;;;4977139;28;20219;-74
2023/10/10 05:35:39;;;;;;;18.83;8.70;;;15.00;99.90;;;;;;4995079;28;20228;-74
2023/10/10 05:38:08;;;;;;;26.05;9.82;;;15.00;99.90;;;;;;4994572;28;20175;-74
2023/10/10 05:40:34;;;;;;;31.77;11.10;;;15.00;99.90;;;;;;4994554;28;20773;-74
2023/10/10 05:43:03;;;;;;;17.48;10.30;;;15.00;99.90;;;;;;4994602;28;20254;-75
2023/10/10 05:45:29;;;;;;;17.50;10.60;;;15.10;99.90;;;;;;4994859;28;20198;-75
2023/10/10 05:47:55;;;;;;;32.92;10.95;;;15.10;99.90;;;;;;4994371;28;20257;-74
2023/10/10 05:50:22;;;;;;;19.80;11.07;;;15.10;99.90;;;;;;4994336;28;20689;-74
2023/10/10 05:52:48;;;;;;;23.30;11.38;;;15.10;99.90;;;;;;4976982;28;20179;-74
2023/10/10 05:55:15;;;;;;;28.40;11.52;;;15.20;99.90;;;;;;4977165;28;20191;-74
2023/10/10 05:57:41;;;;;;;32.08;11.32;;;15.20;99.90;;;;;;4994245;28;20226;-74
2023/10/10 06:00:13;;;;;;;26.00;10.40;;;15.20;99.90;;;;;;4994158;28;20187;-74
2023/10/10 06:02:45;;;;;;;20.85;10.52;;;15.10;99.90;;;;;;4994390;28;20189;-75
2023/10/10 06:05:12;;;;;;;19.15;11.70;;;15.20;99.90;;;;;;4994015;28;20226;-74
2023/10/10 06:07:42;;;;;;;21.35;11.23;;;15.20;99.90;;;;;;4994136;28;20322;-74
2023/10/10 06:10:15;;;;;;;23.35;11.10;;;15.20;99.90;;;;;;4994076;28;20213;-74
2023/10/10 06:12:48;;;;;;;49.95;11.93;;;15.30;99.90;;;;;;4994245;28;20175;-74
2023/10/10 06:15:17;;;;;;;17.77;10.63;;;15.20;99.90;;;;;;4974549;28;20164;-74
2023/10/10 06:17:57;;;;;;;22.55;10.75;;;15.20;99.90;;;;;;4990666;28;20183;-74
2023/10/10 06:20:23;;;;;;;25.13;10.68;;;15.20;99.90;;;;;;4994000;28;20171;-74
2023/10/10 06:22:49;;;;;;;21.58;10.50;;;15.30;99.90;;;;;;4993754;28;20711;-75
2023/10/10 06:25:18;;;;;;;30.38;11.55;;;15.20;99.90;;;;;;4994030;28;20258;-74
2023/10/10 06:27:54;;;;;;;18.02;10.65;;;15.20;99.90;;;;;;4993654;28;20206;-74
2023/10/10 06:30:20;;;;;;;30.75;11.43;;;15.20;99.90;;;;;;4993156;28;20204;-73
2023/10/10 06:32:49;;;;;;;23.20;11.85;;;15.30;99.90;;;;;;4993201;28;20179;-73
2023/10/10 06:37:52;;;;;;;26.77;11.50;;;15.40;99.90;;;;;;4993166;28;20660;-72
2023/10/10 06:40:25;;;;;;;24.23;11.93;;;15.40;99.90;;;;;;4993343;28;20179;-72
2023/10/10 06:42:55;;;;;;;23.13;11.77;;;15.30;99.90;;;;;;4993763;28;20190;-72
2023/10/10 06:45:26;;;;;;;24.70;13.13;;;15.30;99.90;;;;;;4975977;28;20183;-74
2023/10/10 06:47:54;;;;;;;22.55;12.55;;;15.30;99.90;;;;;;4976699;28;20182;-76
2023/10/10 06:50:22;;;;;;;26.40;13.15;;;15.20;99.90;;;;;;4975240;28;20230;-73
2023/10/10 06:52:52;;;;;;;25.70;13.48;;;15.20;99.90;;;;;;4993147;28;20213;-73
2023/10/10 06:55:22;;;;;;;25.77;13.63;;;15.20;99.90;;;;;;4993095;28;20187;-72
2023/10/10 06:57:58;;;;;;;25.00;12.88;;;15.30;99.90;;;;;;4975800;28;20178;-71
2023/10/10 07:00:28;;;;;;;25.83;13.50;;;15.30;99.90;;;;;;4992810;28;20191;-72
2023/10/10 07:02:58;;;;;;;25.85;13.85;;;15.30;99.90;;;;;;4993302;28;20175;-72
2023/10/10 07:05:27;;;;;;;25.92;13.63;;;15.40;99.90;;;;;;4992850;28;20641;-71
2023/10/10 07:08:12;;;;;;;24.17;13.73;;;15.50;99.90;;;;;;4991837;28;20245;-71
2023/10/10 07:10:41;;;;;;;23.38;13.40;;;15.60;99.90;;;;;;4992879;28;20216;-74
2023/10/10 07:13:13;;;;;;;25.42;13.35;;;15.60;99.90;;;;;;4992973;28;20224;-73
2023/10/10 07:15:42;;;;;;;29.88;14.77;;;15.60;99.90;;;;;;4985542;28;20186;-73
2023/10/10 07:18:14;;;;;;;23.67;13.18;;;15.60;99.90;;;;;;4989876;28;20180;-72
2023/10/10 07:23:37;;;;;;;25.20;13.52;;;15.80;99.90;;;;;;4993044;28;20179;-73
2023/10/10 07:26:05;;;;;;;29.00;14.30;;;15.80;99.90;;;;;;4992332;28;20665;-74
2023/10/10 07:28:47;;;;;;;26.27;14.30;;;15.80;99.90;;;;;;4992543;28;20214;-74
2023/10/10 07:31:17;;;;;;;24.45;13.63;;;15.80;99.90;;;;;;4992452;28;20302;-74
2023/10/10 07:33:55;;;;;;;27.00;14.68;;;15.90;99.90;;;;;;4992278;28;20202;-73
2023/10/10 07:36:25;;;;;;;26.25;14.75;;;16.00;99.90;;;;;;4992206;28;20189;-74
2023/10/10 07:41:44;;;;;;;24.95;14.15;;;15.90;99.90;;;;;;4991328;28;20208;-73
2023/10/10 07:44:10;;;;;;;25.30;15.57;;;16.00;99.90;;;;;;4992186;28;20262;-73
2023/10/10 07:46:36;;;;;;;25.90;14.50;;;16.00;99.90;;;;;;4974844;28;20167;-73
2023/10/10 07:49:03;;;;;;;25.23;14.60;;;16.10;99.90;;;;;;4992206;28;20190;-73
2023/10/10 07:51:29;;;;;;;30.17;15.95;;;16.00;99.90;;;;;;4992342;28;20581;-73
2023/10/10 07:54:10;;;;;;;28.67;16.40;;;16.40;99.90;;;;;;4991719;28;20171;-73
2023/10/10 07:56:44;;;;;;;30.23;15.13;;;15.90;99.90;;;;;;4992317;28;20179;-72
2023/10/10 07:59:13;;;;;;;24.45;15.05;;;16.00;99.90;;;;;;4991982;28;20170;-73
2023/10/10 08:01:42;;;;;;;30.50;15.82;;;16.10;99.90;;;;;;4991477;28;20203;-73
2023/10/10 08:04:07;;;;;;;26.95;15.50;;;16.00;99.90;;;;;;4974632;28;20171;-73
2023/10/10 08:06:33;;;;;;;25.85;15.30;;;16.00;99.90;;;;;;4991918;28;20257;-73
2023/10/10 08:11:37;;;;;;;27.88;14.95;;;16.10;99.90;;;;;;4984462;28;20215;-73
2023/10/10 08:14:07;;;;;;;24.52;14.88;;;16.20;99.90;;;;;;4979606;28;20203;-73
2023/10/10 08:16:34;;;;;;;25.40;14.48;;;16.00;99.90;;;;;;4988093;28;20182;-73
2023/10/10 08:19:04;;;;;;;32.10;16.27;;;16.20;99.90;;;;;;4989513;28;20198;-73
2023/10/10 08:21:38;;;;;;;23.85;14.68;;;16.20;99.90;;;;;;4991216;28;20190;-74
2023/10/10 08:24:08;;;;;;;27.00;15.23;;;16.30;99.90;;;;;;4990957;28;20237;-73
2023/10/10 08:26:40;;;;;;;26.27;16.55;;;16.30;99.90;;;;;;4991101;28;20182;-73
2023/10/10 08:29:08;;;;;;;24.48;15.98;;;16.10;99.90;;;;;;4991574;28;20642;-73
2023/10/10 08:31:36;;;;;;;25.88;15.90;;;16.20;99.90;;;;;;4990964;28;20211;-73
2023/10/10 08:34:02;;;;;;;29.80;16.15;;;16.10;99.90;;;;;;4991523;28;20163;-72
2023/10/10 08:36:29;;;;;;;27.30;15.32;;;16.10;99.90;;;;;;4991470;28;20206;-71
2023/10/10 08:38:54;;;;;;;25.05;15.45;;;16.00;99.90;;;;;;4991389;28;20175;-73
2023/10/10 08:41:26;;;;;;;22.15;13.00;;;16.10;99.90;;;;;;4991163;28;20622;-73
2023/10/10 08:44:01;;;;;;;20.27;11.23;;;16.00;99.90;;;;;;4991343;28;20168;-73
2023/10/10 08:46:31;;;;;;;22.73;11.70;;;16.10;99.90;;;;;;4991376;28;20638;-73
2023/10/10 08:48:58;;;;;;;22.27;10.90;;;16.10;99.90;;;;;;4991371;28;20183;-74
2023/10/10 08:51:27;;;;;;;16.20;10.05;;;16.10;99.90;;;;;;4991551;28;20239;-75
2023/10/10 08:53:56;;;;;;;19.33;10.18;;;16.10;99.90;;;;;;4996293;28;20251;-74
2023/10/10 08:56:22;;;;;;;15.93;10.05;;;16.20;99.90;;;;;;4996476;28;20270;-74
2023/10/10 08:58:48;;;;;;;16.75;9.65;;;16.20;99.90;;;;;;4997593;28;20175;-76
2023/10/10 09:01:14;;;;;;;18.23;9.95;;;16.20;99.90;;;;;;4997900;28;20186;-74
2023/10/10 09:03:45;;;;;;;15.63;9.20;;;;;;;;;;4980295;28;20183;-74
2023/10/10 09:06:43;;;;;;;16.05;9.07;;;16.30;99.90;;;;;;4997522;28;20214;-73
2023/10/10 09:09:33;;;;;;;18.30;9.05;;;16.40;99.90;;;;;;4991858;28;20186;-74
2023/10/10 09:11:56;;;;;;;20.73;10.27;;;16.40;99.90;;;;;;4997554;28;20242;-73
2023/10/10 09:14:41;;;;;;;19.13;10.73;;;16.20;99.90;;;;;;4997886;28;20171;-73
2023/10/10 09:17:34;;;;;;;22.17;12.32;;;16.30;99.90;;;;;;4997923;28;20171;-72
2023/10/10 09:20:45;;;;;;;22.15;12.18;;;16.40;99.90;;;;;;4997871;28;20174;-74
2023/10/10 09:22:51;;;;;;;26.08;12.75;;;16.30;99.90;;;;;;4982929;28;20547;-73
2023/10/10 09:25:31;;;;;;;22.00;13.23;;;16.20;99.90;;;;;;4997751;28;20237;-73
2023/10/10 09:28:03;;;;;;;26.15;13.35;;;16.50;99.90;;;;;;4997094;28;20203;-73
2023/10/10 09:30:34;;;;;;;23.92;13.45;;;16.30;99.90;;;;;;4997442;28;20286;-73
2023/10/10 09:33:45;;;;;;;24.35;13.82;;;16.30;99.90;;;;;;4997676;28;20262;-74
2023/10/10 09:35:58;;;;;;;28.00;12.95;;;16.60;99.90;;;;;;4991622;28;20215;-73
2023/10/10 09:38:33;;;;;;;24.17;12.05;;;16.20;99.90;;;;;;4997605;28;20182;-74
2023/10/10 09:44:30;;;;;;;20.88;11.15;;;16.50;99.90;;;;;;4997688;28;20221;-74
2023/10/10 09:50:00;;;;;;;20.67;11.00;;;16.50;99.90;;;;;;4997272;28;20239;-74
2023/10/10 09:52:49;;;;;;;19.88;10.82;;;16.30;99.90;;;;;;4997160;28;20207;-76
2023/10/10 10:09:18;;;;;;;16.92;9.82;;;16.30;99.90;;;;;;4974745;28;20219;-77
2023/10/10 10:12:04;;;;;;;18.88;9.65;;;16.60;99.90;;;;;;4974895;28;20208;-76
2023/10/10 10:15:15;;;;;;;14.32;7.93;;;16.40;99.90;;;;;;4974877;28;20255;-75
2023/10/10 10:17:56;;;;;;;13.55;8.88;;;16.50;99.90;;;;;;4974750;28;20175;-76
2023/10/10 10:21:03;;;;;;;15.32;8.43;;;15.90;99.90;;;;;;4974892;28;20164;-76
2023/10/10 10:23:33;;;;;;;15.23;8.15;;;;;;;;;;4974165;28;20218;-78
2023/10/10 10:26:10;;;;;;;14.45;7.75;;;16.60;99.90;;;;;;4957478;28;20184;-78
2023/10/10 10:28:37;;;;;;;14.55;8.38;;;16.90;99.90;;;;;;4974090;28;20171;-77
2023/10/10 10:31:16;;;;;;;12.45;8.00;;;16.70;99.90;;;;;;4974624;28;20690;-77
2023/10/10 10:34:05;;;;;;;12.38;7.97;;;16.80;99.90;;;;;;4974580;28;20172;-77
2023/10/10 10:36:41;;;;;;;15.07;7.95;;;16.80;99.90;;;;;;4974654;28;20263;-77
2023/10/10 10:39:26;;;;;;;12.68;7.07;;;16.90;99.90;;;;;;4977850;28;20179;-76
2023/10/10 10:41:59;;;;;;;13.50;7.93;;;16.90;99.90;;;;;;4985311;28;20685;-75
2023/10/10 10:47:38;;;;;;;12.05;8.07;;;16.80;99.90;;;;;;4990190;28;20176;-74
2023/10/10 10:50:19;;;;;;;16.35;7.93;;;17.70;99.90;;;;;;4973900;28;20654;-74
2023/10/10 10:52:56;;;;;;;14.30;8.32;;;16.60;99.90;;;;;;4973707;28;20222;-75
2023/10/10 10:55:29;;;;;;;12.63;7.78;;;16.80;99.90;;;;;;4990918;28;20182;-75
2023/10/10 10:58:20;;;;;;;13.50;7.53;;;17.10;99.90;;;;;;4992166;28;20186;-75
2023/10/10 11:03:34;;;;;;;11.82;7.13;;;17.30;99.90;;;;;;4993287;28;20580;-76
2023/10/10 11:06:06;;;;;;;12.38;7.20;;;17.40;99.90;;;;;;4974457;28;20313;-76
2023/10/10 11:14:00;;;;;;;13.10;7.43;;;17.60;99.90;;;;;;4992763;28;20914;-77
2023/10/10 11:16:39;;;;;;;15.18;7.90;;;17.60;99.90;;;;;;4991984;28;20182;-77
2023/10/10 11:21:50;;;;;;;10.38;6.72;;;;;;;;;;4993056;28;20167;-77
2023/10/10 11:24:29;;;;;;;12.27;6.97;;;17.90;99.90;;;;;;4992907;28;20175;-77
2023/10/10 11:29:29;;;;;;;10.15;6.32;;;;;;;;;;4991210;28;20225;-77
2023/10/10 11:32:08;;;;;;;12.82;7.00;;;17.80;99.90;;;;;;4991084;28;20226;-77
2023/10/10 11:34:42;;;;;;;11.05;6.43;;;;;;;;;;4992151;28;20704;-77
2023/10/10 11:37:25;;;;;;;11.77;6.00;;;18.20;99.90;;;;;;4992528;28;20179;-76
2023/10/10 11:39:57;;;;;;;10.05;7.03;;;18.30;99.90;;;;;;4975198;28;20179;-76
2023/10/10 11:42:30;;;;;;;9.77;6.70;;;18.20;99.90;;;;;;4992948;28;20177;-77
2023/10/10 11:45:06;;;;;;;14.52;6.57;;;18.30;99.90;;;;;;4992986;28;20618;-77
2023/10/10 11:47:42;;;;;;;14.27;5.97;;;18.70;99.90;;;;;;4993418;28;20264;-77
2023/10/10 11:50:11;;;;;;;13.15;6.00;;;19.40;99.90;;;;;;4992890;28;20653;-78
2023/10/10 11:52:52;;;;;;;10.00;6.22;;;20.30;99.90;;;;;;4992752;28;20215;-77
2023/10/10 11:55:21;;;;;;;14.85;6.22;;;23.20;99.90;;;;;;4992715;28;20171;-77
2023/10/10 11:57:51;;;;;;;13.10;5.82;;;22.40;99.90;;;;;;4992750;28;20642;-79
2023/10/10 12:00:59;;;;;;;12.10;5.38;;;22.80;99.90;;;;;;4992597;28;20187;-80
2023/10/10 12:03:41;;;;;;;12.50;4.60;;;23.50;99.90;;;;;;4991202;28;20187;-79
2023/10/10 12:06:04;;;;;;;11.50;4.03;;;;;;;;;;4991580;28;20227;-78
2023/10/10 12:08:29;;;;;;;8.10;4.63;;;23.70;99.90;;;;;;4992802;28;20711;-79
2023/10/10 12:11:12;;;;;;;9.77;4.55;;;23.50;99.90;;;;;;4992666;28;20294;-79
2023/10/10 12:13:38;;;;;;;11.98;3.95;;;;;;;;;;4992256;28;20194;-79
2023/10/10 12:16:10;;;;;;;12.45;4.10;;;21.20;99.90;;;;;;4992143;28;20167;-79
2023/10/10 12:18:43;;;;;;;8.95;3.83;;;20.90;99.90;;;;;;4992264;28;20634;-79
2023/10/10 12:21:10;;;;;;;6.05;3.50;;;20.50;99.90;;;;;;4992378;28;20616;-78
2023/10/10 12:23:36;;;;;;;7.57;4.03;;;20.40;99.90;;;;;;4992139;28;20177;-79
2023/10/10 12:26:04;;;;;;;6.55;3.80;;;20.50;99.90;;;;;;4991988;28;20171;-78
2023/10/10 12:28:29;;;;;;;5.75;3.80;;;20.20;99.90;;;;;;4991592;28;20215;-78
2023/10/10 12:31:03;;;;;;;7.70;3.97;;;20.10;99.90;;;;;;4992154;28;20246;-78
2023/10/10 12:33:29;;;;;;;7.78;4.35;;;20.40;99.90;;;;;;4992412;28;20206;-77
2023/10/10 12:35:56;;;;;;;9.70;4.05;;;20.30;99.90;;;;;;4992362;28;20203;-79
2023/10/10 12:38:23;;;;;;;12.18;4.20;;;20.30;99.90;;;;;;4991977;28;20254;-78
2023/10/10 12:40:49;;;;;;;7.38;3.85;;;;;;;;;;4992196;28;20171;-78
2023/10/10 12:43:15;;;;;;;6.30;3.95;;;20.50;99.90;;;;;;4992363;28;20171;-78
2023/10/10 12:45:41;;;;;;;7.32;3.90;;;20.60;99.90;;;;;;4991951;28;20269;-78
2023/10/10 12:48:13;;;;;;;8.20;3.80;;;20.80;99.90;;;;;;4991884;28;20257;-78
2023/10/10 12:50:41;;;;;;;12.05;4.75;;;20.50;99.90;;;;;;4992115;28;20242;-78
2023/10/10 12:53:15;;;;;;;9.52;3.92;;;20.30;99.90;;;;;;4991977;28;20175;-78
2023/10/10 12:56:01;;;;;;;6.47;3.90;;;20.00;99.90;;;;;;4992578;28;20181;-78
2023/10/10 12:58:27;;;;;;;6.30;3.90;;;19.80;99.90;;;;;;4991448;28;20167;-78
2023/10/10 13:00:54;;;;;;;10.27;3.90;;;20.00;99.90;;;;;;4991716;28;20642;-78
2023/10/10 13:03:27;;;;;;;6.75;3.80;;;20.30;99.90;;;;;;4991988;28;20175;-78
2023/10/10 13:05:58;;;;;;;9.82;4.55;;;;;;;;;;4991614;28;20273;-78
2023/10/10 13:08:25;;;;;;;9.57;3.70;;;20.40;99.90;;;;;;4974310;28;20175;-78
2023/10/10 13:11:01;;;;;;;10.18;4.13;;;;;;;;;;4991515;28;20199;-77
2023/10/10 13:13:27;;;;;;;7.35;3.72;;;21.80;99.90;;;;;;4991876;28;20167;-77
2023/10/10 13:16:22;;;;;;;11.20;4.10;;;21.30;99.90;;;;;;4991967;28;20568;-77
2023/10/10 13:18:51;;;;;;;8.35;3.95;;;21.30;99.90;;;;;;4991819;28;20213;-77
2023/10/10 13:21:19;;;;;;;9.48;3.97;;;20.80;99.90;;;;;;4991747;28;20195;-77
2023/10/10 13:23:49;;;;;;;9.15;3.78;;;21.20;99.90;;;;;;4990442;28;20179;-78
2023/10/10 13:26:16;;;;;;;7.43;3.75;;;21.40;99.90;;;;;;4991658;28;20189;-79
2023/10/10 13:28:44;;;;;;;8.63;4.43;;;21.20;99.90;;;;;;4991441;28;20217;-77
2023/10/10 13:31:14;;;;;;;6.57;3.83;;;21.00;99.90;;;;;;4991415;28;20211;-77
2023/10/10 13:33:40;;;;;;;8.57;3.95;;;21.30;99.90;;;;;;4991506;28;20176;-78
2023/10/10 13:36:11;;;;;;;7.95;4.43;;;21.30;99.90;;;;;;4991379;28;20660;-78
2023/10/10 13:38:46;;;;;;;9.50;4.72;;;20.80;99.90;;;;;;4991347;28;20250;-77
2023/10/10 13:41:12;;;;;;;8.43;4.65;;;20.70;99.90;;;;;;4994453;28;20180;-78
2023/10/10 13:43:41;;;;;;;8.10;4.93;;;20.60;99.90;;;;;;4994764;28;20642;-77
2023/10/10 13:46:07;;;;;;;8.98;4.72;;;20.40;99.90;;;;;;4962189;28;20206;-78
2023/10/10 13:48:36;;;;;;;10.82;4.13;;;20.50;99.90;;;;;;4994751;28;20171;-78
2023/10/10 13:51:04;;;;;;;5.97;3.92;;;20.50;99.90;;;;;;4994967;28;20207;-78
2023/10/10 13:53:31;;;;;;;10.05;4.55;;;20.80;99.90;;;;;;4994733;28;20190;-78
2023/10/10 13:56:00;;;;;;;8.98;4.63;;;20.40;99.90;;;;;;4977361;28;20183;-79
2023/10/10 13:58:26;;;;;;;9.05;4.30;;;20.20;99.90;;;;;;4994878;28;20179;-78
2023/10/10 14:03:56;;;;;;;7.93;5.22;;;20.20;99.90;;;;;;4940859;28;20282;-76
2023/10/10 14:06:26;;;;;;;11.57;6.32;;;19.80;99.90;;;;;;4976372;28;20230;-76
2023/10/10 14:08:52;;;;;;;9.65;5.75;;;19.80;99.90;;;;;;4993237;28;20183;-77
2023/10/10 14:11:21;;;;;;;9.48;5.60;;;20.00;99.90;;;;;;4993448;28;20301;-77
2023/10/10 14:13:48;;;;;;;9.70;6.30;;;20.30;99.90;;;;;;4994414;28;20185;-78
2023/10/10 14:16:14;;;;;;;11.70;5.53;;;20.40;99.90;;;;;;4977085;28;20182;-78
2023/10/10 14:18:46;;;;;;;9.23;6.28;;;22.10;1.00;;;;;;4975556;28;20175;-80
2023/10/10 14:21:12;;;;;;;9.48;6.00;;;22.30;1.00;;;;;;4975153;28;20195;-80
2023/10/10 14:23:39;;;;;;;11.05;6.50;;;23.20;99.90;;;;;;4993074;28;20183;-78
2023/10/10 14:26:18;;;;;;;17.27;7.43;;;24.00;1.00;;;;;;4994810;28;20171;-79
2023/10/10 14:28:50;;;;;;;12.23;7.07;;;23.70;1.00;;;;;;4994271;28;20657;-80
2023/10/10 14:31:18;;;;;;;9.90;7.20;;;23.00;99.90;;;;;;4994167;28;20265;-79
2023/10/10 14:33:43;;;;;;;11.65;7.25;;;23.20;99.90;;;;;;4994440;28;20171;-79
2023/10/10 14:36:13;;;;;;;12.57;7.32;;;23.30;1.00;;;;;;5001993;28;20175;-80
2023/10/10 14:38:44;;;;;;;16.85;8.13;;;22.80;1.00;;;;;;5009544;28;20178;-79
2023/10/10 14:41:17;;;;;;;11.30;6.20;;;22.50;1.00;;;;;;4993688;28;20175;-78
2023/10/10 14:43:49;;;;;;;10.40;7.30;;;22.20;99.90;;;;;;4997807;28;20187;-78
2023/10/10 14:46:21;;;;;;;13.30;6.95;;;22.00;99.90;;;;;;4994220;28;20175;-79
2023/10/10 14:48:51;;;;;;;9.32;6.65;;;21.60;99.90;;;;;;4988530;28;20259;-78
2023/10/10 14:51:17;;;;;;;9.95;6.75;;;21.40;1.00;;;;;;4956927;28;20238;-79
2023/10/10 14:53:51;;;;;;;16.38;7.00;;;21.40;99.90;;;;;;4974572;28;20182;-79
2023/10/10 14:56:32;;;;;;;15.30;7.30;;;21.30;73.90;;;;;;4974877;28;20176;-79
2023/10/10 14:59:01;;;;;;;10.90;7.30;;;21.40;10.60;;;;;;4993603;28;20187;-79
2023/10/10 15:01:34;;;;;;;10.93;6.32;;;21.50;1.00;;;;;;4990353;28;20187;-78
2023/10/10 15:04:08;;;;;;;10.30;7.18;;;21.30;99.90;;;;;;4986851;28;20570;-79
2023/10/10 15:06:35;;;;;;;16.88;7.40;;;21.30;99.90;;;;;;4983283;28;20269;-78
2023/10/10 15:09:01;;;;;;;11.70;6.80;;;21.50;99.90;;;;;;4991706;28;20194;-78
2023/10/10 15:11:28;;;;;;;13.77;7.15;;;21.50;32.90;;;;;;4983022;28;20208;-78
2023/10/10 15:13:58;;;;;;;11.77;7.70;;;21.40;1.00;;;;;;4978316;28;20180;-80
2023/10/10 15:16:25;;;;;;;15.35;7.53;;;21.40;99.90;;;;;;4988606;28;20179;-79
2023/10/10 15:18:54;;;;;;;20.95;7.97;;;21.10;99.90;;;;;;4993472;28;20191;-79
2023/10/10 15:21:21;;;;;;;21.33;7.88;;;20.80;99.90;;;;;;4976115;28;20283;-79
2023/10/10 15:23:47;;;;;;;11.25;8.20;;;20.60;1.00;;;;;;4993286;28;20179;-79
2023/10/10 15:26:20;;;;;;;12.23;7.82;;;20.50;1.00;;;;;;4965183;28;20187;-79
2023/10/10 15:28:46;;;;;;;15.27;8.60;;;20.50;1.00;;;;;;4992672;28;20190;-80
2023/10/10 15:31:13;;;;;;;11.50;7.25;;;20.40;1.00;;;;;;4993124;28;20211;-79
2023/10/10 15:33:43;;;;;;;13.32;8.40;;;20.30;99.90;;;;;;4975370;28;20229;-80
2023/10/10 15:36:11;;;;;;;14.73;8.98;;;20.20;99.90;;;;;;4991204;28;20250;-77
2023/10/10 15:38:38;;;;;;;14.27;7.88;;;20.20;99.90;;;;;;4992604;28;20179;-77
2023/10/10 15:41:31;;;;;;;11.02;7.85;;;20.30;99.90;;;;;;4992763;28;20178;-79
2023/10/10 15:44:02;;;;;;;11.25;8.07;;;20.40;99.90;;;;;;4989150;28;20183;-80
2023/10/10 15:46:32;;;;;;;15.48;8.15;;;20.30;99.90;;;;;;4982246;28;20171;-80
2023/10/10 15:48:59;;;;;;;16.73;8.85;;;20.30;99.90;;;;;;4991862;28;20186;-80
2023/10/10 15:51:26;;;;;;;14.75;8.45;;;20.30;99.90;;;;;;4993053;28;20218;-80
2023/10/10 15:53:54;;;;;;;14.88;9.38;;;20.10;99.90;;;;;;4993237;28;20179;-81
2023/10/10 15:56:26;;;;;;;12.80;8.18;;;20.10;99.90;;;;;;4993136;28;20175;-80
2023/10/10 15:58:53;;;;;;;15.20;8.18;;;20.00;99.90;;;;;;4992868;28;20630;-80
2023/10/10 16:01:30;;;;;;;17.90;8.82;;;20.00;99.90;;;;;;4993071;28;20277;-79
2023/10/10 16:04:00;;;;;;;11.95;7.85;;;20.00;99.90;;;;;;4987447;28;20275;-80
2023/10/10 16:06:28;;;;;;;11.85;7.90;;;20.00;99.90;;;;;;4991117;28;20215;-79
2023/10/10 16:08:57;;;;;;;11.85;7.70;;;19.90;99.90;;;;;;4990647;28;20171;-78
2023/10/10 16:11:31;;;;;;;17.48;8.23;;;19.70;99.90;;;;;;4991806;28;20214;-78
2023/10/10 16:13:57;;;;;;;12.45;7.38;;;19.80;99.90;;;;;;5008053;28;20163;-79
2023/10/10 16:16:23;;;;;;;15.15;7.90;;;19.60;99.90;;;;;;5001416;28;20213;-77
2023/10/10 16:18:49;;;;;;;12.02;7.30;;;19.50;99.90;;;;;;5005311;28;20172;-77
2023/10/10 16:21:15;;;;;;;12.52;7.13;;;19.40;99.90;;;;;;4974369;28;20223;-78
2023/10/10 16:23:44;;;;;;;13.52;7.65;;;19.40;99.90;;;;;;4992751;28;20195;-80
2023/10/10 16:26:14;;;;;;;15.50;6.50;;;19.30;99.90;;;;;;4991801;28;20203;-79
2023/10/10 16:28:41;;;;;;;11.18;7.10;;;19.40;99.90;;;;;;4981177;28;20182;-76
2023/10/10 16:31:10;;;;;;;14.50;7.10;;;19.30;99.90;;;;;;5006902;28;20231;-78